Zottegem, Belgium
Current Conditions -  °F | °C
As of 6:25 AM on Wednesday 22 Oct 2014 (Local Time) from EBCV Reporting Station
Few Clouds Few Clouds  
Wind Chill: 38°   Ceiling: Unl
Heat Index: 45°   Visibility: 6mi
Dew Point: 37°   Wind: 13mph
Humidity: 76%   Direction: 290°WNW
Pressure: 30.12"   Gusts: NA
Location:  50.87°N, 3.81°E
Report Text: EBCV 220425Z AUTO 29011KT 9999 FEW047/// 07/03 Q1020 BLU
Loading
Personal Weather Stations






























Interactive Weather Map
Tropical Storm Tracking
New forecast layout! Learn more

10-Day Weather Forecast

Advertisements
Track Severe Weather on mobile